Flight Track Log - Related Links

Times and Time Zones

All times are in EDT time to prevent confusion due to time zone crossing. See the UAL656 flight status page for this flight to view local times or setup timezone preferences in your user account.

Time Position Orientation Groundspeed Altitude Reporting Facility
EDT Latitude Longitude Course Direction KTS MPH feet Rate Location/Type
Sat 03:34:58 PM 42.1630 -87.6140 90° East 100 115 12,100  Level FlightAware ADS-B
Sat 03:35:00 PM 42.0750 -87.0839 90° East  Level Estimated
Sat 03:35:36 PM 42.1730 -87.6280 314° West 100 115 12,100  Level FlightAware ADS-B
Sat 03:36:12 PM 42.1830 -87.6420 314° West 100 115 12,100  Level FlightAware ADS-B
Sat 03:36:49 PM 42.1930 -87.6570 312° West 100 115 12,100 4,154 Level FlightAware ADS-B
Sat 03:38:22 PM 42.2580 -87.1700 80° East 100 115 21,100 4,267 Climbing FlightAware ADS-B
Sat 03:39:04 PM 42.2780 -87.0760 74° East 412 474 21,700 2,143 Climbing FlightAware ADS-B
Sat 03:39:32 PM 42.2830 -86.9930 85° East 418 481 23,600 2,000 Climbing FlightAware ADS-B
Sat 03:40:25 PM 42.2880 -86.8650 87° East 445 512 24,400 539 Climbing FlightAware ADS-B
Sat 03:41:01 PM 42.2920 -86.7800 86° East 445 512 24,400 1,720 Level FlightAware ADS-B
Sat 03:42:48 PM 42.3050 -86.4140 87° East 492 566 28,500 2,043 Climbing FlightAware ADS-B
Sat 03:43:19 PM 42.3080 -86.3220 87° East 512 589 29,100 522 Climbing FlightAware ADS-B
Sat 03:43:57 PM 42.3100 -86.2180 88° East 512 589 29,100  Level FlightAware ADS-B
Sat 03:44:31 PM 42.3130 -86.1260 87° East 512 589 29,100 2,381 Level FlightAware ADS-B
Sat 03:45:00 PM 42.3140 -85.9950 89° East 512 589 31,600 2,296 Climbing FlightAware ADS-B
Sat 03:45:52 PM 42.3140 -85.8460 90° East 524 603 32,200 409 Climbing FlightAware ADS-B
Sat 03:46:28 PM 42.3160 -85.7450 88° East 524 603 32,200  Level FlightAware ADS-B
Sat 03:47:04 PM 42.3170 -85.6450 89° East 524 603 32,200  Level FlightAware ADS-B
Sat 03:47:38 PM 42.3180 -85.5500 89° East 524 603 32,200  Level FlightAware ADS-B
Sat 03:48:17 PM 42.3200 -85.4420 89° East 524 603 32,200  Level FlightAware ADS-B
Sat 03:48:54 PM 42.3210 -85.3380 89° East 524 603 32,200  Level FlightAware ADS-B
Sat 03:49:30 PM 42.3220 -85.2380 89° East 524 603 32,200  Level FlightAware ADS-B
Sat 03:50:06 PM 42.3230 -85.1380 89° East 524 603 32,200  Level FlightAware ADS-B
Sat 03:50:42 PM 42.3250 -85.0370 88° East 524 603 32,200  Level FlightAware ADS-B
Sat 03:51:18 PM 42.3260 -84.9370 89° East 524 603 32,200  Level FlightAware ADS-B
Sat 03:51:52 PM 42.3270 -84.8420 89° East 524 603 32,200  Level FlightAware ADS-B
Sat 03:52:28 PM 42.3290 -84.7420 88° East 524 603 32,200  Level FlightAware ADS-B
Sat 03:53:04 PM 42.3300 -84.6420 89° East 524 603 32,200  Level FlightAware ADS-B
Sat 03:53:40 PM 42.3310 -84.5410 89° East 524 603 32,200  Level FlightAware ADS-B
Sat 03:54:16 PM 42.3320 -84.4410 89° East 524 603 32,200  Level FlightAware ADS-B
Sat 03:54:52 PM 42.3340 -84.3410 88° East 524 603 32,200 3,892 Level FlightAware ADS-B
Sat 03:55:30 PM 42.3719 -83.8569 88° East 535 616 37,000 2,880 Climbing Cleveland Center
Sat 03:56:32 PM 42.3989 -83.6522 80° East 545 627 37,000  Level Cleveland Center
Sat 03:57:34 PM 42.4144 -83.4214 85° East 544 626 37,000  Level Cleveland Center
Sat 03:58:36 PM 42.4228 -83.2128 87° East 548 631 37,000  Level Cleveland Center
Sat 03:59:38 PM 42.4372 -83.0278 84° East 546 628 37,000  Level Cleveland Center
Sat 04:00:40 PM 42.4558 -82.7803 84° East 549 632 37,000  Level Cleveland Center
Sat 04:01:42 PM 42.4697 -82.5761 85° East 547 629 37,000  Level Cleveland Center
Sat 04:02:44 PM 42.4839 -82.3733 85° East 544 626 37,000  Level Cleveland Center
Sat 04:03:46 PM 42.4978 -82.1692 85° East 544 626 37,000  Level Cleveland Center
Sat 04:04:48 PM 42.5114 -81.9639 85° East 548 631 37,000  Level Cleveland Center
Sat 04:05:50 PM 42.5258 -81.7269 85° East 552 635 37,000  Level Cleveland Center
Sat 04:06:52 PM 42.5389 -81.5161 85° East 555 639 37,000  Level Cleveland Center
Sat 04:07:54 PM 42.5522 -81.3011 85° East 563 648 37,000  Level Cleveland Center
Sat 04:08:56 PM 42.5636 -81.0900 86° East 559 643 37,000  Level Cleveland Center
Sat 04:09:58 PM 42.5761 -80.8797 85° East 556 640 37,000  Level Cleveland Center
Sat 04:11:00 PM 42.5883 -80.6669 85° East 558 642 37,000  Level Cleveland Center
Sat 04:12:02 PM 42.5992 -80.4567 86° East 554 638 37,000  Level Cleveland Center
Sat 04:13:04 PM 42.6117 -80.2092 86° East 558 642 37,000 -48 Level Cleveland Center
Sat 04:14:06 PM 42.6219 -79.9975 86° East 557 641 36,900 -484 Descending Cleveland Center
Sat 04:15:08 PM 42.6314 -79.8156 86° East 538 619 36,000 -919 Descending Cleveland Center
Sat 04:16:10 PM 42.6403 -79.6097 87° East 546 628 35,000 -458 Descending Cleveland Center
Sat 04:21:41 PM 42.6850 -78.4810 87° East 100 115 33,000 -330 Descending FlightAware ADS-B
Sat 04:22:14 PM 42.6880 -78.3810 88° East 556 640 33,000  Level FlightAware ADS-B
Sat 04:22:50 PM 42.6920 -78.2740 87° East 556 640 33,000  Level FlightAware ADS-B
Sat 04:23:26 PM 42.6960 -78.1670 87° East 556 640 33,000  Level FlightAware ADS-B
Sat 04:24:02 PM 42.7010 -78.0600 86° East 556 640 33,000  Level FlightAware ADS-B
Sat 04:24:38 PM 42.7050 -77.9530 87° East 556 640 33,000  Level FlightAware ADS-B
Sat 04:25:15 PM 42.7090 -77.8430 87° East 556 640 33,000 -2,889 Level FlightAware ADS-B
Sat 04:25:59 PM 42.7130 -77.5910 89° East 553 636 29,100 -2,786 Descending FlightAware ADS-B
Sat 04:26:39 PM 42.7170 -77.4730 87° East 553 636 29,100  Level FlightAware ADS-B
Sat 04:27:15 PM 42.7210 -77.3660 87° East 553 636 29,100  Level FlightAware ADS-B
Sat 04:27:51 PM 42.7250 -77.2600 87° East 553 636 29,100  Level FlightAware ADS-B
Sat 04:28:28 PM 42.7300 -77.1500 86° East 553 636 29,100  Level FlightAware ADS-B
Sat 04:29:04 PM 42.7340 -77.0440 87° East 553 636 29,100  Level FlightAware ADS-B
Sat 04:29:42 PM 42.7380 -76.9320 87° East 553 636 29,100 -130 Level FlightAware ADS-B
Sat 04:30:36 PM 42.7339 -76.5892 87° East 556 640 28,900 -104 Descending Cleveland Center
Sat 04:31:37 PM 42.7372 -76.3761 89° East 564 649 28,900 -1,220 Level Cleveland Center
Sat 04:32:39 PM 42.7406 -76.1281 89° East 553 636 26,400 -2,426 Descending Cleveland Center
Sat 04:33:53 PM 42.7439 -75.8925 89° East 546 628 23,400 -2,198 Descending Boston Center
Sat 04:34:50 PM 42.7453 -75.7058 89° East 526 605 21,600 -2,000 Descending Boston Center
Sat 04:35:50 PM 42.7481 -75.5333 89° East 489 563 19,500 -2,350 Descending Boston Center
Sat 04:36:50 PM 42.7525 -75.3611 88° East 455 524 16,900 -2,380 Descending Boston Center
Sat 04:37:51 PM 42.7711 -75.2008 81° East 443 510 14,700 -2,132 Descending Boston Center
Sat 04:38:51 PM 42.7853 -75.0458 83° East 423 487 12,600 -2,000 Descending Boston Center
Sat 04:39:12 PM 42.7886 -74.9892 85° East 416 479 12,000 -1,300 Descending Boston Center
Sat 04:39:51 PM 42.7969 -74.8992 83° East 409 471 11,300 -1,000 Descending Boston Center
Sat 04:40:00 PM 42.7972 -74.8792 89° East 369 425 11,200 -393 Descending Boston Center
Sat 04:40:52 PM 42.8036 -74.7806 85° East 374 430 10,900 -197 Descending Boston Center
Sat 04:41:01 PM 42.8064 -74.7408 85° East 337 388 11,000  Climbing Boston Center
Sat 04:41:51 PM 42.8064 -74.6392 90° East 343 395 10,900  Descending Boston Center
Sat 04:42:04 PM 42.8069 -74.6136 88° East 343 395 11,000  Climbing Boston Center
Sat 04:42:52 PM 42.8169 -74.5206 82° East 337 388 10,900  Descending Boston Center
Sat 04:43:05 PM 42.8217 -74.4839 80° East 339 390 11,000 -1,034 Climbing Boston Center
Sat 04:43:50 PM 42.8381 -74.3939 76° East 325 374 9,900 -1,800 Descending Boston Center
Sat 04:44:05 PM 42.8406 -74.3714 81° East 310 357 9,200 -2,262 Descending Boston Center
Sat 04:44:51 PM 42.8522 -74.2922 79° East 307 353 7,600 -2,262 Descending Boston Center
Sat 04:45:06 PM 42.8589 -74.2586 75° East 303 349 6,900 -2,500 Descending Boston Center
Sat 04:45:51 PM 42.8708 -74.1683 80° East 297 342 5,100 -2,100 Descending Boston Center
Sat 04:46:06 PM 42.8753 -74.1456 75° East 290 334 4,800 -1,100 Descending Boston Center
Sat 04:46:51 PM 42.8867 -74.0781 77° East 277 319 4,000 -800 Descending Boston Center
Sat 04:47:06 PM 42.8914 -74.0469 78° East 264 304 4,000 -492 Level Boston Center
Sat 04:47:52 PM 42.9006 -73.9792 80° East 251 289 3,500 -689 Descending Boston Center
Sat 04:48:07 PM 42.9050 -73.9622 70° East 220 253 3,300 -517 Descending Boston Center
Sat 04:48:50 PM 42.9119 -73.9028 81° East 229 264 3,000 -295 Descending Boston Center
Sat 04:49:08 PM 42.9164 -73.8775 76° East 219 252 3,000  Level Boston Center
Sat 04:49:51 PM 42.9025 -73.8317 112° Southeast 190 219 3,000 -197 Level Boston Center
Sat 04:50:09 PM 42.8922 -73.8172 134° Southeast 166 191 2,800 -600 Descending Boston Center
Sat 04:50:51 PM 42.8672 -73.8083 165° South 154 177 2,400 -774 Descending Boston Center
Sat 04:51:11 PM 42.8486 -73.8136 192° South 158 182 2,000 -825 Descending Boston Center
Sat 04:52:11 PM 42.8089 -73.8100 176° South 145 167 1,300 -667 Descending Boston Center
Sat 04:53:17 PM 42.7736 -73.8064 176° South 113 130 600 -636 Descending Boston Center

Login

Don't have an account? Register now (free) for customized features, flight alerts, and more!